sensor_id;sensor_type;location;lat;lon;timestamp;pressure;altitude;pressure_sealevel;temperature;humidity
79366;BME280;68833;53.160;17.920;2023-05-07T00:01:43;101545.55;;;6.90;78.50
79366;BME280;68833;53.160;17.920;2023-05-07T00:04:10;101542.16;;;6.87;78.34
79366;BME280;68833;53.160;17.920;2023-05-07T00:06:37;101542.77;;;6.83;78.41
79366;BME280;68833;53.160;17.920;2023-05-07T00:09:06;101541.63;;;6.77;78.47
79366;BME280;68833;53.160;17.920;2023-05-07T00:11:33;101543.10;;;6.73;78.47
79366;BME280;68833;53.160;17.920;2023-05-07T00:14:00;101540.92;;;6.69;78.53
79366;BME280;68833;53.160;17.920;2023-05-07T00:16:28;101539.46;;;6.66;78.29
79366;BME280;68833;53.160;17.920;2023-05-07T00:18:55;101536.60;;;6.63;78.23
79366;BME280;68833;53.160;17.920;2023-05-07T00:21:22;101539.17;;;6.60;78.03
79366;BME280;68833;53.160;17.920;2023-05-07T00:23:49;101538.53;;;6.55;78.18
79366;BME280;68833;53.160;17.920;2023-05-07T00:26:17;101539.14;;;6.50;78.29
79366;BME280;68833;53.160;17.920;2023-05-07T00:28:44;101542.36;;;6.46;78.63
79366;BME280;68833;53.160;17.920;2023-05-07T00:31:11;101547.14;;;6.41;78.45
79366;BME280;68833;53.160;17.920;2023-05-07T00:33:39;101550.89;;;6.37;78.32
79366;BME280;68833;53.160;17.920;2023-05-07T00:36:06;101550.64;;;6.33;78.46
79366;BME280;68833;53.160;17.920;2023-05-07T00:38:33;101552.65;;;6.30;78.29
79366;BME280;68833;53.160;17.920;2023-05-07T00:41:01;101551.17;;;6.26;78.08
79366;BME280;68833;53.160;17.920;2023-05-07T00:43:29;101551.98;;;6.23;78.37
79366;BME280;68833;53.160;17.920;2023-05-07T00:45:57;101551.39;;;6.20;78.30
79366;BME280;68833;53.160;17.920;2023-05-07T00:48:25;101550.62;;;6.17;78.36
79366;BME280;68833;53.160;17.920;2023-05-07T00:50:52;101555.48;;;6.16;78.29
79366;BME280;68833;53.160;17.920;2023-05-07T00:53:20;101558.01;;;6.13;78.09
79366;BME280;68833;53.160;17.920;2023-05-07T00:55:48;101560.21;;;6.09;78.21
79366;BME280;68833;53.160;17.920;2023-05-07T00:58:16;101559.76;;;6.05;78.27
79366;BME280;68833;53.160;17.920;2023-05-07T01:00:44;101561.64;;;6.03;77.95
79366;BME280;68833;53.160;17.920;2023-05-07T01:03:11;101564.88;;;6.00;78.05
79366;BME280;68833;53.160;17.920;2023-05-07T01:05:39;101565.35;;;5.99;78.25
79366;BME280;68833;53.160;17.920;2023-05-07T01:08:07;101566.23;;;5.99;78.47
79366;BME280;68833;53.160;17.920;2023-05-07T01:10:35;101567.98;;;5.99;77.90
79366;BME280;68833;53.160;17.920;2023-05-07T01:13:02;101565.59;;;5.95;78.21
79366;BME280;68833;53.160;17.920;2023-05-07T01:15:30;101563.23;;;5.92;78.27
79366;BME280;68833;53.160;17.920;2023-05-07T01:17:58;101566.80;;;5.87;78.11
79366;BME280;68833;53.160;17.920;2023-05-07T01:20:31;101564.46;;;5.84;78.09
79366;BME280;68833;53.160;17.920;2023-05-07T01:23:00;101567.02;;;5.82;78.11
79366;BME280;68833;53.160;17.920;2023-05-07T01:25:28;101569.58;;;5.80;78.17
79366;BME280;68833;53.160;17.920;2023-05-07T01:27:57;101570.70;;;5.75;77.87
79366;BME280;68833;53.160;17.920;2023-05-07T01:30:29;101576.19;;;5.71;78.41
79366;BME280;68833;53.160;17.920;2023-05-07T01:33:02;101581.34;;;5.69;78.26
79366;BME280;68833;53.160;17.920;2023-05-07T01:35:38;101577.73;;;5.65;78.08
79366;BME280;68833;53.160;17.920;2023-05-07T01:38:06;101579.38;;;5.61;78.34
79366;BME280;68833;53.160;17.920;2023-05-07T01:40:34;101581.23;;;5.57;78.26
79366;BME280;68833;53.160;17.920;2023-05-07T01:43:02;101583.23;;;5.54;78.17
79366;BME280;68833;53.160;17.920;2023-05-07T01:45:30;101583.52;;;5.52;78.21
79366;BME280;68833;53.160;17.920;2023-05-07T01:47:59;101585.51;;;5.48;78.09
79366;BME280;68833;53.160;17.920;2023-05-07T01:50:27;101587.15;;;5.44;78.39
79366;BME280;68833;53.160;17.920;2023-05-07T01:52:55;101592.44;;;5.40;78.27
79366;BME280;68833;53.160;17.920;2023-05-07T01:55:22;101591.48;;;5.37;77.89
79366;BME280;68833;53.160;17.920;2023-05-07T01:57:50;101594.24;;;5.36;77.66
79366;BME280;68833;53.160;17.920;2023-05-07T02:00:17;101594.15;;;5.32;77.90
79366;BME280;68833;53.160;17.920;2023-05-07T02:02:45;101597.21;;;5.30;78.12
79366;BME280;68833;53.160;17.920;2023-05-07T02:05:22;101597.09;;;5.25;78.00
79366;BME280;68833;53.160;17.920;2023-05-07T02:07:56;101593.80;;;5.19;77.98
79366;BME280;68833;53.160;17.920;2023-05-07T02:10:24;101595.97;;;5.16;78.05
79366;BME280;68833;53.160;17.920;2023-05-07T02:12:51;101595.23;;;5.15;78.43
79366;BME280;68833;53.160;17.920;2023-05-07T02:15:18;101592.89;;;5.12;77.84
79366;BME280;68833;53.160;17.920;2023-05-07T02:18:03;101592.67;;;5.10;78.29
79366;BME280;68833;53.160;17.920;2023-05-07T02:20:31;101596.07;;;5.07;77.99
79366;BME280;68833;53.160;17.920;2023-05-07T02:22:58;101594.11;;;5.05;78.49
79366;BME280;68833;53.160;17.920;2023-05-07T02:25:27;101604.48;;;5.03;78.63
79366;BME280;68833;53.160;17.920;2023-05-07T02:27:54;101606.35;;;5.01;78.47
79366;BME280;68833;53.160;17.920;2023-05-07T02:30:22;101609.25;;;4.99;77.51
79366;BME280;68833;53.160;17.920;2023-05-07T02:32:52;101611.24;;;4.96;78.08
79366;BME280;68833;53.160;17.920;2023-05-07T02:35:19;101610.94;;;4.91;78.33
79366;BME280;68833;53.160;17.920;2023-05-07T02:37:46;101612.91;;;4.87;77.95
79366;BME280;68833;53.160;17.920;2023-05-07T02:40:14;101609.11;;;4.82;77.84
79366;BME280;68833;53.160;17.920;2023-05-07T02:42:43;101611.91;;;4.77;78.15
79366;BME280;68833;53.160;17.920;2023-05-07T02:45:10;101613.79;;;4.75;77.67
79366;BME280;68833;53.160;17.920;2023-05-07T02:47:39;101610.79;;;4.75;78.14
79366;BME280;68833;53.160;17.920;2023-05-07T02:50:07;101609.06;;;4.74;78.08
79366;BME280;68833;53.160;17.920;2023-05-07T02:52:34;101609.52;;;4.73;77.83
79366;BME280;68833;53.160;17.920;2023-05-07T02:55:05;101607.70;;;4.69;78.41
79366;BME280;68833;53.160;17.920;2023-05-07T02:57:32;101608.30;;;4.67;78.15
79366;BME280;68833;53.160;17.920;2023-05-07T02:59:59;101605.64;;;4.65;78.04
79366;BME280;68833;53.160;17.920;2023-05-07T03:02:36;101600.37;;;4.63;78.02
79366;BME280;68833;53.160;17.920;2023-05-07T03:05:04;101606.08;;;4.62;78.32
79366;BME280;68833;53.160;17.920;2023-05-07T03:07:32;101607.35;;;4.58;77.96
79366;BME280;68833;53.160;17.920;2023-05-07T03:09:59;101613.55;;;4.56;78.19
79366;BME280;68833;53.160;17.920;2023-05-07T03:12:27;101618.39;;;4.54;78.62
79366;BME280;68833;53.160;17.920;2023-05-07T03:14:54;101619.56;;;4.53;78.38
79366;BME280;68833;53.160;17.920;2023-05-07T03:17:21;101622.13;;;4.52;78.28
79366;BME280;68833;53.160;17.920;2023-05-07T03:19:48;101627.66;;;4.51;78.38
79366;BME280;68833;53.160;17.920;2023-05-07T03:22:16;101629.89;;;4.50;78.50
79366;BME280;68833;53.160;17.920;2023-05-07T03:24:43;101629.80;;;4.47;78.10
79366;BME280;68833;53.160;17.920;2023-05-07T03:27:10;101633.37;;;4.44;78.06
79366;BME280;68833;53.160;17.920;2023-05-07T03:29:37;101634.98;;;4.40;78.37
79366;BME280;68833;53.160;17.920;2023-05-07T03:32:04;101633.85;;;4.37;78.47
79366;BME280;68833;53.160;17.920;2023-05-07T03:34:32;101639.02;;;4.36;78.41
79366;BME280;68833;53.160;17.920;2023-05-07T03:37:01;101641.42;;;4.35;78.21
79366;BME280;68833;53.160;17.920;2023-05-07T03:39:28;101646.80;;;4.34;78.24
79366;BME280;68833;53.160;17.920;2023-05-07T03:41:56;101649.34;;;4.32;78.48
79366;BME280;68833;53.160;17.920;2023-05-07T03:44:24;101646.64;;;4.29;78.26
79366;BME280;68833;53.160;17.920;2023-05-07T03:46:51;101651.45;;;4.28;78.42
79366;BME280;68833;53.160;17.920;2023-05-07T03:49:18;101653.86;;;4.27;78.43
79366;BME280;68833;53.160;17.920;2023-05-07T03:51:45;101657.86;;;4.27;78.31
79366;BME280;68833;53.160;17.920;2023-05-07T03:54:13;101656.60;;;4.25;78.43
79366;BME280;68833;53.160;17.920;2023-05-07T03:56:44;101655.90;;;4.26;78.60
79366;BME280;68833;53.160;17.920;2023-05-07T03:59:12;101664.89;;;4.23;78.44
79366;BME280;68833;53.160;17.920;2023-05-07T04:01:40;101664.80;;;4.21;78.37
79366;BME280;68833;53.160;17.920;2023-05-07T04:04:07;101669.25;;;4.19;78.20
79366;BME280;68833;53.160;17.920;2023-05-07T04:06:35;101670.62;;;4.18;78.37
79366;BME280;68833;53.160;17.920;2023-05-07T04:09:02;101670.20;;;4.16;78.46
79366;BME280;68833;53.160;17.920;2023-05-07T04:11:29;101675.92;;;4.15;78.69
79366;BME280;68833;53.160;17.920;2023-05-07T04:13:56;101680.17;;;4.13;78.53
79366;BME280;68833;53.160;17.920;2023-05-07T04:16:23;101680.87;;;4.12;78.43
79366;BME280;68833;53.160;17.920;2023-05-07T04:18:50;101681.73;;;4.12;78.67
79366;BME280;68833;53.160;17.920;2023-05-07T04:21:20;101682.77;;;4.12;78.61
79366;BME280;68833;53.160;17.920;2023-05-07T04:23:48;101688.35;;;4.13;78.77
79366;BME280;68833;53.160;17.920;2023-05-07T04:26:15;101692.14;;;4.12;78.62
79366;BME280;68833;53.160;17.920;2023-05-07T04:28:45;101685.30;;;4.10;78.64
79366;BME280;68833;53.160;17.920;2023-05-07T04:31:12;101690.67;;;4.09;78.87
79366;BME280;68833;53.160;17.920;2023-05-07T04:33:39;101688.46;;;4.11;78.80
79366;BME280;68833;53.160;17.920;2023-05-07T04:36:09;101691.52;;;4.14;78.84
79366;BME280;68833;53.160;17.920;2023-05-07T04:38:40;101692.70;;;4.18;78.77
79366;BME280;68833;53.160;17.920;2023-05-07T04:41:09;101700.10;;;4.21;78.83
79366;BME280;68833;53.160;17.920;2023-05-07T04:43:39;101705.09;;;4.25;78.97
79366;BME280;68833;53.160;17.920;2023-05-07T04:46:07;101710.04;;;4.27;79.18
79366;BME280;68833;53.160;17.920;2023-05-07T04:48:34;101715.69;;;4.30;79.29
79366;BME280;68833;53.160;17.920;2023-05-07T04:51:02;101714.27;;;4.34;79.46
79366;BME280;68833;53.160;17.920;2023-05-07T04:53:30;101714.42;;;4.39;79.48
79366;BME280;68833;53.160;17.920;2023-05-07T04:55:58;101712.63;;;4.43;79.60
79366;BME280;68833;53.160;17.920;2023-05-07T04:58:31;101713.23;;;4.45;79.44
79366;BME280;68833;53.160;17.920;2023-05-07T05:00:59;101713.14;;;4.47;79.71
79366;BME280;68833;53.160;17.920;2023-05-07T05:03:27;101713.95;;;4.51;79.60
79366;BME280;68833;53.160;17.920;2023-05-07T05:05:54;101719.55;;;4.57;79.48
79366;BME280;68833;53.160;17.920;2023-05-07T05:08:21;101722.73;;;4.64;79.76
79366;BME280;68833;53.160;17.920;2023-05-07T05:10:49;101721.86;;;4.70;80.04
79366;BME280;68833;53.160;17.920;2023-05-07T05:13:16;101725.54;;;4.76;79.64
79366;BME280;68833;53.160;17.920;2023-05-07T05:15:44;101731.64;;;4.82;79.39
79366;BME280;68833;53.160;17.920;2023-05-07T05:18:12;101729.53;;;4.87;79.69
79366;BME280;68833;53.160;17.920;2023-05-07T05:20:40;101732.35;;;4.94;80.19
79366;BME280;68833;53.160;17.920;2023-05-07T05:23:08;101739.38;;;5.01;80.00
79366;BME280;68833;53.160;17.920;2023-05-07T05:25:35;101743.55;;;5.07;80.28
79366;BME280;68833;53.160;17.920;2023-05-07T05:28:04;101737.96;;;5.12;80.04
79366;BME280;68833;53.160;17.920;2023-05-07T05:30:34;101737.10;;;5.19;80.23
79366;BME280;68833;53.160;17.920;2023-05-07T05:33:01;101741.61;;;5.24;80.16
79366;BME280;68833;53.160;17.920;2023-05-07T05:35:29;101748.48;;;5.32;79.77
79366;BME280;68833;53.160;17.920;2023-05-07T05:37:59;101746.33;;;5.42;79.67
79366;BME280;68833;53.160;17.920;2023-05-07T05:40:27;101741.84;;;5.50;79.79
79366;BME280;68833;53.160;17.920;2023-05-07T05:42:55;101748.90;;;5.59;80.13
79366;BME280;68833;53.160;17.920;2023-05-07T05:45:25;101748.30;;;5.68;80.25
79366;BME280;68833;53.160;17.920;2023-05-07T05:47:56;101744.40;;;5.79;80.06
79366;BME280;68833;53.160;17.920;2023-05-07T05:50:23;101744.04;;;5.91;80.08
79366;BME280;68833;53.160;17.920;2023-05-07T05:52:53;101741.97;;;6.04;79.91
79366;BME280;68833;53.160;17.920;2023-05-07T05:55:21;101748.95;;;6.17;79.53
79366;BME280;68833;53.160;17.920;2023-05-07T05:57:50;101752.79;;;6.30;79.51
79366;BME280;68833;53.160;17.920;2023-05-07T06:00:18;101758.70;;;6.44;79.68
79366;BME280;68833;53.160;17.920;2023-05-07T06:02:45;101758.31;;;6.56;79.94
79366;BME280;68833;53.160;17.920;2023-05-07T06:05:15;101754.27;;;6.70;79.91
79366;BME280;68833;53.160;17.920;2023-05-07T06:07:46;101754.73;;;6.81;79.60
79366;BME280;68833;53.160;17.920;2023-05-07T06:10:13;101754.33;;;6.94;79.54
79366;BME280;68833;53.160;17.920;2023-05-07T06:12:42;101752.70;;;7.07;79.92
79366;BME280;68833;53.160;17.920;2023-05-07T06:15:09;101752.98;;;7.20;79.52
79366;BME280;68833;53.160;17.920;2023-05-07T06:17:37;101755.69;;;7.32;79.22
79366;BME280;68833;53.160;17.920;2023-05-07T06:20:05;101754.51;;;7.42;79.06
79366;BME280;68833;53.160;17.920;2023-05-07T06:22:33;101751.45;;;7.55;78.69
79366;BME280;68833;53.160;17.920;2023-05-07T06:25:01;101753.21;;;7.64;78.52
79366;BME280;68833;53.160;17.920;2023-05-07T06:27:29;101758.49;;;7.75;77.82
79366;BME280;68833;53.160;17.920;2023-05-07T06:29:57;101759.35;;;7.82;78.02
79366;BME280;68833;53.160;17.920;2023-05-07T06:32:24;101761.70;;;7.87;77.85
79366;BME280;68833;53.160;17.920;2023-05-07T06:34:51;101764.13;;;7.94;77.84
79366;BME280;68833;53.160;17.920;2023-05-07T06:37:19;101760.94;;;8.02;77.93
79366;BME280;68833;53.160;17.920;2023-05-07T06:39:55;101758.89;;;8.14;77.81
79366;BME280;68833;53.160;17.920;2023-05-07T06:42:22;101760.25;;;8.22;77.27
79366;BME280;68833;53.160;17.920;2023-05-07T06:44:50;101760.61;;;8.33;77.24
79366;BME280;68833;53.160;17.920;2023-05-07T06:47:18;101765.19;;;8.44;77.34
79366;BME280;68833;53.160;17.920;2023-05-07T06:49:47;101767.34;;;8.55;76.31
79366;BME280;68833;53.160;17.920;2023-05-07T06:52:17;101766.59;;;8.63;76.10
79366;BME280;68833;53.160;17.920;2023-05-07T06:54:49;101764.61;;;8.71;75.87
79366;BME280;68833;53.160;17.920;2023-05-07T06:57:17;101765.26;;;8.79;75.99
79366;BME280;68833;53.160;17.920;2023-05-07T06:59:44;101769.09;;;8.88;76.06
79366;BME280;68833;53.160;17.920;2023-05-07T07:02:11;101774.96;;;8.95;75.35
79366;BME280;68833;53.160;17.920;2023-05-07T07:04:39;101779.44;;;9.00;74.04
79366;BME280;68833;53.160;17.920;2023-05-07T07:07:10;101784.64;;;9.08;73.95
79366;BME280;68833;53.160;17.920;2023-05-07T07:09:37;101783.03;;;9.19;74.30
79366;BME280;68833;53.160;17.920;2023-05-07T07:12:04;101784.39;;;9.28;74.03
79366;BME280;68833;53.160;17.920;2023-05-07T07:14:31;101781.68;;;9.35;71.66
79366;BME280;68833;53.160;17.920;2023-05-07T07:16:59;101780.48;;;9.37;72.04
79366;BME280;68833;53.160;17.920;2023-05-07T07:19:28;101785.27;;;9.41;71.80
79366;BME280;68833;53.160;17.920;2023-05-07T07:21:55;101782.69;;;9.45;71.51
79366;BME280;68833;53.160;17.920;2023-05-07T07:24:22;101785.17;;;9.47;70.89
79366;BME280;68833;53.160;17.920;2023-05-07T07:26:52;101787.49;;;9.51;71.75
79366;BME280;68833;53.160;17.920;2023-05-07T07:29:19;101787.98;;;9.62;71.57
79366;BME280;68833;53.160;17.920;2023-05-07T07:31:48;101785.64;;;9.70;71.50
79366;BME280;68833;53.160;17.920;2023-05-07T07:34:16;101792.77;;;9.80;71.44
79366;BME280;68833;53.160;17.920;2023-05-07T07:36:44;101789.73;;;9.91;71.17
79366;BME280;68833;53.160;17.920;2023-05-07T07:39:12;101790.54;;;10.00;70.69
79366;BME280;68833;53.160;17.920;2023-05-07T07:41:40;101788.39;;;10.11;70.13
79366;BME280;68833;53.160;17.920;2023-05-07T07:44:07;101788.83;;;10.20;69.44
79366;BME280;68833;53.160;17.920;2023-05-07T07:46:36;101790.15;;;10.28;69.18
79366;BME280;68833;53.160;17.920;2023-05-07T07:49:25;101791.95;;;10.33;68.49
79366;BME280;68833;53.160;17.920;2023-05-07T07:51:54;101801.86;;;10.38;67.51
79366;BME280;68833;53.160;17.920;2023-05-07T07:54:22;101801.37;;;10.43;66.34
79366;BME280;68833;53.160;17.920;2023-05-07T07:56:51;101796.83;;;10.46;65.68
79366;BME280;68833;53.160;17.920;2023-05-07T07:59:19;101793.88;;;10.50;64.78
79366;BME280;68833;53.160;17.920;2023-05-07T08:01:49;101800.08;;;10.56;64.55
79366;BME280;68833;53.160;17.920;2023-05-07T08:04:20;101802.96;;;10.63;63.79
79366;BME280;68833;53.160;17.920;2023-05-07T08:06:48;101805.31;;;10.71;63.27
79366;BME280;68833;53.160;17.920;2023-05-07T08:09:15;101802.38;;;10.76;62.96
79366;BME280;68833;53.160;17.920;2023-05-07T08:11:42;101800.84;;;10.83;62.99
79366;BME280;68833;53.160;17.920;2023-05-07T08:14:11;101803.88;;;10.91;62.79
79366;BME280;68833;53.160;17.920;2023-05-07T08:16:38;101804.10;;;10.96;61.44
79366;BME280;68833;53.160;17.920;2023-05-07T08:19:09;101803.95;;;11.00;60.64
79366;BME280;68833;53.160;17.920;2023-05-07T08:21:39;101804.70;;;11.06;60.90
79366;BME280;68833;53.160;17.920;2023-05-07T08:24:06;101804.19;;;11.08;58.96
79366;BME280;68833;53.160;17.920;2023-05-07T08:26:34;101803.32;;;11.11;59.79
79366;BME280;68833;53.160;17.920;2023-05-07T08:29:02;101801.97;;;11.18;59.73
79366;BME280;68833;53.160;17.920;2023-05-07T08:31:30;101805.36;;;11.26;59.61
79366;BME280;68833;53.160;17.920;2023-05-07T08:33:59;101807.33;;;11.33;57.91
79366;BME280;68833;53.160;17.920;2023-05-07T08:36:27;101805.63;;;11.42;57.77
79366;BME280;68833;53.160;17.920;2023-05-07T08:38:55;101804.60;;;11.49;58.23
79366;BME280;68833;53.160;17.920;2023-05-07T08:41:23;101807.98;;;11.54;56.33
79366;BME280;68833;53.160;17.920;2023-05-07T08:43:51;101810.48;;;11.60;56.11
79366;BME280;68833;53.160;17.920;2023-05-07T08:46:20;101811.21;;;11.67;55.44
79366;BME280;68833;53.160;17.920;2023-05-07T08:48:48;101811.06;;;11.73;55.24
79366;BME280;68833;53.160;17.920;2023-05-07T08:51:20;101813.71;;;11.78;55.53
79366;BME280;68833;53.160;17.920;2023-05-07T08:53:50;101814.63;;;11.85;55.20
79366;BME280;68833;53.160;17.920;2023-05-07T08:56:22;101813.06;;;11.91;54.36
79366;BME280;68833;53.160;17.920;2023-05-07T08:58:51;101808.71;;;11.95;53.79
79366;BME280;68833;53.160;17.920;2023-05-07T09:01:18;101812.60;;;12.03;54.48
79366;BME280;68833;53.160;17.920;2023-05-07T09:03:49;101816.34;;;12.12;54.73
79366;BME280;68833;53.160;17.920;2023-05-07T09:06:17;101819.54;;;12.23;54.10
79366;BME280;68833;53.160;17.920;2023-05-07T09:08:52;101811.27;;;12.29;54.20
79366;BME280;68833;53.160;17.920;2023-05-07T09:11:21;101814.09;;;12.35;53.08
79366;BME280;68833;53.160;17.920;2023-05-07T09:13:56;101817.09;;;12.41;53.05
79366;BME280;68833;53.160;17.920;2023-05-07T09:16:25;101822.92;;;12.48;52.52
79366;BME280;68833;53.160;17.920;2023-05-07T09:18:54;101818.34;;;12.53;51.81
79366;BME280;68833;53.160;17.920;2023-05-07T09:21:23;101813.93;;;12.58;52.22
79366;BME280;68833;53.160;17.920;2023-05-07T09:23:51;101811.12;;;12.65;51.95
79366;BME280;68833;53.160;17.920;2023-05-07T09:26:24;101810.95;;;12.73;50.93
79366;BME280;68833;53.160;17.920;2023-05-07T09:28:54;101806.19;;;12.83;51.42
79366;BME280;68833;53.160;17.920;2023-05-07T09:31:21;101809.71;;;12.90;49.17
79366;BME280;68833;53.160;17.920;2023-05-07T09:33:50;101810.23;;;12.97;49.34
79366;BME280;68833;53.160;17.920;2023-05-07T09:36:18;101816.23;;;13.04;48.81
79366;BME280;68833;53.160;17.920;2023-05-07T09:38:45;101813.58;;;13.09;48.69
79366;BME280;68833;53.160;17.920;2023-05-07T09:41:13;101816.23;;;13.10;46.44
79366;BME280;68833;53.160;17.920;2023-05-07T09:43:53;101813.73;;;13.15;47.24
79366;BME280;68833;53.160;17.920;2023-05-07T09:46:28;101813.04;;;13.18;45.70
79366;BME280;68833;53.160;17.920;2023-05-07T09:48:57;101810.02;;;13.23;46.51
79366;BME280;68833;53.160;17.920;2023-05-07T09:51:33;101820.06;;;13.29;46.13
79366;BME280;68833;53.160;17.920;2023-05-07T09:54:04;101820.26;;;13.37;45.84
79366;BME280;68833;53.160;17.920;2023-05-07T09:56:34;101822.90;;;13.39;44.54
79366;BME280;68833;53.160;17.920;2023-05-07T09:59:05;101826.25;;;13.41;46.11
79366;BME280;68833;53.160;17.920;2023-05-07T10:03:58;101832.90;;;13.62;45.46
79366;BME280;68833;53.160;17.920;2023-05-07T10:06:25;101832.88;;;13.69;44.77
79366;BME280;68833;53.160;17.920;2023-05-07T10:08:53;101843.63;;;13.74;44.35
79366;BME280;68833;53.160;17.920;2023-05-07T10:11:21;101835.51;;;13.77;44.47
79366;BME280;68833;53.160;17.920;2023-05-07T10:13:48;101833.17;;;13.81;44.68
79366;BME280;68833;53.160;17.920;2023-05-07T10:16:15;101835.45;;;13.90;44.72
79366;BME280;68833;53.160;17.920;2023-05-07T10:18:46;101836.29;;;13.98;43.27
79366;BME280;68833;53.160;17.920;2023-05-07T10:21:19;101834.35;;;13.99;43.22
79366;BME280;68833;53.160;17.920;2023-05-07T10:24:03;101835.73;;;14.03;43.55
79366;BME280;68833;53.160;17.920;2023-05-07T10:26:33;101841.17;;;14.09;43.93
79366;BME280;68833;53.160;17.920;2023-05-07T10:29:14;101838.15;;;14.15;43.76
79366;BME280;68833;53.160;17.920;2023-05-07T10:32:07;101841.13;;;14.19;43.15
79366;BME280;68833;53.160;17.920;2023-05-07T10:34:43;101844.09;;;14.25;43.69
79366;BME280;68833;53.160;17.920;2023-05-07T10:37:12;101842.29;;;14.32;44.40
79366;BME280;68833;53.160;17.920;2023-05-07T10:39:40;101835.20;;;14.38;44.02
79366;BME280;68833;53.160;17.920;2023-05-07T10:42:10;101839.24;;;14.37;42.89
79366;BME280;68833;53.160;17.920;2023-05-07T10:44:37;101836.23;;;14.38;42.84
79366;BME280;68833;53.160;17.920;2023-05-07T10:47:24;101827.77;;;14.39;43.81
79366;BME280;68833;53.160;17.920;2023-05-07T10:52:33;101829.26;;;14.52;43.38
79366;BME280;68833;53.160;17.920;2023-05-07T10:55:23;101834.33;;;14.61;43.53
79366;BME280;68833;53.160;17.920;2023-05-07T11:00:48;101839.46;;;14.64;43.51
79366;BME280;68833;53.160;17.920;2023-05-07T11:03:24;101835.34;;;14.70;43.35
79366;BME280;68833;53.160;17.920;2023-05-07T11:06:15;101835.45;;;14.80;43.12
79366;BME280;68833;53.160;17.920;2023-05-07T11:08:52;101841.40;;;14.88;43.34
79366;BME280;68833;53.160;17.920;2023-05-07T11:11:46;101845.97;;;14.90;43.14
79366;BME280;68833;53.160;17.920;2023-05-07T11:14:43;101849.39;;;14.84;42.80
79366;BME280;68833;53.160;17.920;2023-05-07T11:17:28;101854.73;;;14.81;43.24
79366;BME280;68833;53.160;17.920;2023-05-07T11:20:02;101855.86;;;14.71;42.73
79366;BME280;68833;53.160;17.920;2023-05-07T11:22:39;101849.36;;;14.58;42.78
79366;BME280;68833;53.160;17.920;2023-05-07T11:25:42;101844.94;;;14.59;42.74
79366;BME280;68833;53.160;17.920;2023-05-07T11:28:15;101850.95;;;14.63;43.30
79366;BME280;68833;53.160;17.920;2023-05-07T11:30:57;101850.92;;;14.69;42.27
79366;BME280;68833;53.160;17.920;2023-05-07T11:33:25;101846.11;;;14.72;42.37
79366;BME280;68833;53.160;17.920;2023-05-07T11:35:56;101849.98;;;14.75;41.95
79366;BME280;68833;53.160;17.920;2023-05-07T11:38:25;101842.54;;;14.76;41.58
79366;BME280;68833;53.160;17.920;2023-05-07T11:40:53;101838.45;;;14.80;42.31
79366;BME280;68833;53.160;17.920;2023-05-07T11:43:20;101845.14;;;14.84;41.83
79366;BME280;68833;53.160;17.920;2023-05-07T11:45:47;101843.44;;;14.76;41.11
79366;BME280;68833;53.160;17.920;2023-05-07T11:48:15;101847.71;;;14.71;40.46
79366;BME280;68833;53.160;17.920;2023-05-07T11:51:03;101853.23;;;14.67;40.99
79366;BME280;68833;53.160;17.920;2023-05-07T11:53:41;101851.31;;;14.60;41.11
79366;BME280;68833;53.160;17.920;2023-05-07T11:56:12;101852.59;;;14.53;41.04
79366;BME280;68833;53.160;17.920;2023-05-07T11:58:41;101857.45;;;14.39;41.16
79366;BME280;68833;53.160;17.920;2023-05-07T12:01:09;101857.13;;;14.35;41.57
79366;BME280;68833;53.160;17.920;2023-05-07T12:03:42;101855.66;;;14.43;42.13
79366;BME280;68833;53.160;17.920;2023-05-07T12:06:10;101854.20;;;14.50;40.51
79366;BME280;68833;53.160;17.920;2023-05-07T12:08:39;101853.61;;;14.60;40.63
79366;BME280;68833;53.160;17.920;2023-05-07T12:11:13;101856.77;;;14.68;40.12
79366;BME280;68833;53.160;17.920;2023-05-07T12:13:40;101854.21;;;14.76;40.76
79366;BME280;68833;53.160;17.920;2023-05-07T12:16:07;101855.96;;;14.79;40.67
79366;BME280;68833;53.160;17.920;2023-05-07T12:18:37;101854.69;;;14.84;40.49
79366;BME280;68833;53.160;17.920;2023-05-07T12:21:04;101854.67;;;14.87;40.73
79366;BME280;68833;53.160;17.920;2023-05-07T12:23:31;101858.97;;;14.80;40.59
79366;BME280;68833;53.160;17.920;2023-05-07T12:25:59;101850.16;;;14.76;40.47
79366;BME280;68833;53.160;17.920;2023-05-07T12:28:25;101850.77;;;14.61;40.12
79366;BME280;68833;53.160;17.920;2023-05-07T12:30:52;101854.57;;;14.48;40.78
79366;BME280;68833;53.160;17.920;2023-05-07T12:33:25;101853.71;;;14.43;40.87
79366;BME280;68833;53.160;17.920;2023-05-07T12:35:54;101855.69;;;14.39;40.97
79366;BME280;68833;53.160;17.920;2023-05-07T12:38:21;101857.47;;;14.37;40.30
79366;BME280;68833;53.160;17.920;2023-05-07T12:40:49;101854.80;;;14.39;40.59
79366;BME280;68833;53.160;17.920;2023-05-07T12:43:18;101849.30;;;14.42;40.47
79366;BME280;68833;53.160;17.920;2023-05-07T12:45:46;101855.98;;;14.48;39.74
79366;BME280;68833;53.160;17.920;2023-05-07T12:48:13;101854.86;;;14.56;39.99
79366;BME280;68833;53.160;17.920;2023-05-07T12:50:39;101851.13;;;14.64;39.74
79366;BME280;68833;53.160;17.920;2023-05-07T12:53:07;101856.38;;;14.72;38.68
79366;BME280;68833;53.160;17.920;2023-05-07T12:55:48;101851.41;;;14.73;38.42
79366;BME280;68833;53.160;17.920;2023-05-07T12:58:26;101856.73;;;14.73;38.67
79366;BME280;68833;53.160;17.920;2023-05-07T13:00:54;101854.20;;;14.79;39.17
79366;BME280;68833;53.160;17.920;2023-05-07T13:06:04;101847.60;;;14.87;38.86
79366;BME280;68833;53.160;17.920;2023-05-07T13:08:32;101855.69;;;14.91;39.11